ADDS METAR Data INFO
IDs: Format: Raw Decoded Include TAF

Data at: 0258 UTC 21 Oct 2017

KPTT 210235Z AUTO 16018G24KT 10SM CLR 20/15 A2973 RMK AO2 T02010148
KPTT 210215Z AUTO 16016G23KT 10SM CLR 20/15 A2973 RMK AO2 T02000146
KPTT 210155Z AUTO 16015G20KT 10SM CLR 20/15 A2973 RMK AO2 T02010145
KPTT 210135Z AUTO 16015G23KT 10SM CLR 20/14 A2973 RMK AO2 T02030142
KPTT 210115Z AUTO 16017KT 10SM CLR 20/14 A2973 RMK AO2 T02030142
KPTT 210055Z AUTO 16016G22KT 10SM CLR 21/14 A2973 RMK AO2 T02060142
KPTT 210035Z AUTO 17020G26KT 10SM SCT037 21/14 A2973 RMK AO2 T02110140
KPTT 210015Z AUTO 18020KT 10SM SCT037 21/14 A2973 RMK AO2 T02120137
KPTT 202355Z AUTO 18024G31KT 10SM CLR 22/14 A2973 RMK AO2 T02150136 10251 20215
KPTT 202335Z AUTO 18028G37KT 10SM SCT038 SCT044 SCT050 22/14 A2973 RMK AO2 T02200136
KPTT 202315Z AUTO 19023G31KT 10SM SCT038 SCT047 SCT050 23/14 A2973 RMK AO2 T02250137
KPTT 202255Z AUTO 18027G34KT 10SM SCT049 23/14 A2973 RMK AO2 T02270135
KPTT 202235Z AUTO 19030G36KT 10SM CLR 23/13 A2973 RMK AO2 T02310133
KPTT 202215Z AUTO 17024G36KT 10SM CLR 24/14 A2972 RMK AO2 T02400135
KPTT 202155Z AUTO 18028G34KT 10SM CLR 24/13 A2972 RMK AO2 T02420131
KPTT 202135Z AUTO 17026G36KT 10SM SCT041 SCT050 25/13 A2973 RMK AO2 T02450134
KPTT 202115Z AUTO 18033G37KT 10SM SCT041 SCT050 24/13 A2974 RMK AO2 T02430131
KPTT 202055Z AUTO 18022G32KT 10SM SCT041 SCT055 SCT070 24/14 A2974 RMK AO2 T02420136
KPTT 202035Z AUTO 18023G33KT 10SM SCT041 BKN055 BKN070 25/13 A2975 RMK AO2 T02450132
KPTT 202015Z AUTO 18027G33KT 10SM SCT041 BKN055 24/13 A2976 RMK AO2 T02400133
KPTT 201955Z AUTO 18027G34KT 10SM SCT041 SCT049 SCT060 24/13 A2977 RMK AO2 T02420134
KPTT 201935Z AUTO 18027G36KT 10SM SCT039 SCT048 25/14 A2977 RMK AO2 T02470135
KPTT 201915Z AUTO 17026G36KT 10SM SCT039 BKN048 24/14 A2979 RMK AO2 T02390135
KPTT 201855Z AUTO 18022G29KT 10SM SCT029 24/14 A2981 RMK AO2 T02390142
KPTT 201835Z AUTO 18022G27KT 10SM SCT027 22/14 A2983 RMK AO2 T02190141
KPTT 201815Z AUTO 19022G28KT 10SM SCT025 22/14 A2984 RMK AO2 T02190142
KPTT 201755Z AUTO 19022G31KT 10SM SCT023 22/14 A2985 RMK AO2 T02190142 10219 20135
KPTT 201735Z AUTO 18020G27KT 10SM CLR 20/14 A2986 RMK AO2 T02020139
KPTT 201715Z AUTO 18021G29KT 10SM CLR 20/14 A2987 RMK AO2 T01980135
KPTT 201655Z AUTO 18022G28KT 10SM CLR 19/13 A2988 RMK AO2 T01900133
KPTT 201635Z AUTO 18024G29KT 10SM CLR 19/13 A2989 RMK AO2 T01900131
KPTT 201615Z AUTO 18021G25KT 10SM CLR 19/13 A2989 RMK AO2 T01860130
KPTT 201555Z AUTO 18020G25KT 10SM CLR 18/13 A2989 RMK AO2 T01810127
KPTT 201535Z AUTO 18020G27KT 10SM CLR 19/13 A2990 RMK AO2 T01890126
KPTT 201515Z AUTO 18020G25KT 10SM CLR 18/12 A2991 RMK AO2 T01780123
KPTT 201455Z AUTO 17019G25KT 10SM CLR 17/12 A2992 RMK AO2 T01700121
KPTT 201435Z AUTO 17016G23KT 10SM CLR 16/12 A2992 RMK AO2 T01600117
KPTT 201415Z AUTO 17017G22KT 10SM CLR 15/11 A2993 RMK AO2 T01500114
KPTT 201355Z AUTO 17017G21KT 10SM CLR 15/11 A2993 RMK AO2 T01450111
KPTT 201335Z AUTO 16014G21KT 10SM CLR 14/11 A2993 RMK AO2 T01400107
KPTT 201315Z AUTO 16017G21KT 10SM CLR 14/11 A2993 RMK AO2 T01370106
KPTT 201255Z AUTO 16015G21KT 10SM CLR 14/11 A2994 RMK AO2 T01350105
KPTT 201235Z AUTO 17016G22KT 10SM CLR 14/10 A2994 RMK AO2 T01350102
KPTT 201215Z AUTO 17015G21KT 10SM CLR 14/10 A2994 RMK AO2 T01380102
KPTT 201155Z AUTO 17015G20KT 10SM CLR 14/10 A2995 RMK AO2 T01360100 10160 20136
KPTT 201135Z AUTO 16014G19KT 10SM CLR 14/10 A2995 RMK AO2 T01370100
KPTT 201115Z AUTO 16013G19KT 10SM CLR 14/10 A2995 RMK AO2 T01400097
KPTT 201055Z AUTO 16011G15KT 10SM CLR 14/10 A2996 RMK AO2 T01370095
KPTT 201035Z AUTO 16013G17KT 10SM CLR 14/09 A2997 RMK AO2 T01390092
KPTT 201015Z AUTO 17014G19KT 10SM CLR 14/09 A2997 RMK AO2 T01410090
KPTT 200955Z AUTO 17015G21KT 10SM CLR 14/09 A2997 RMK AO2 T01420088
KPTT 200935Z AUTO 17014G20KT 10SM CLR 14/09 A2997 RMK AO2 T01430087
KPTT 200915Z AUTO 17013G19KT 10SM CLR 15/09 A2998 RMK AO2 T01450087
KPTT 200855Z AUTO 17015KT 10SM CLR 15/09 A2998 RMK AO2 T01470085
KPTT 200835Z AUTO 17015G19KT 10SM CLR 15/09 A2999 RMK AO2 T01500085
KPTT 200815Z AUTO 17015G21KT 10SM CLR 15/09 A3000 RMK AO2 T01500085
KPTT 200755Z AUTO 17018KT 10SM CLR 15/09 A3000 RMK AO2 T01500086
KPTT 200735Z AUTO 17016G21KT 10SM CLR 15/09 A3001 RMK AO2 T01530087
KPTT 200715Z AUTO 17015G22KT 10SM CLR 16/09 A3000 RMK AO2 T01560086
KPTT 200655Z AUTO 17016G21KT 10SM CLR 16/09 A3001 RMK AO2 T01570086
KPTT 200635Z AUTO 17016G22KT 10SM CLR 16/09 A3001 RMK AO2 T01600087
KPTT 200615Z AUTO 17014G18KT 10SM CLR 16/09 A3002 RMK AO2 T01590090
KPTT 200555Z AUTO 17015G20KT 10SM CLR 16/09 A3002 RMK AO2 T01600090 10213 20159 402550066
KPTT 200535Z AUTO 17016G20KT 10SM CLR 16/09 A3003 RMK AO2 T01610090
KPTT 200515Z AUTO 17015KT 10SM CLR 16/09 A3003 RMK AO2 T01620090
KPTT 200455Z AUTO 17014KT 10SM CLR 16/09 A3003 RMK AO2 T01630091
KPTT 200435Z AUTO 17013G17KT 10SM CLR 16/09 A3004 RMK AO2 T01630091
KPTT 200415Z AUTO 16015G18KT 10SM CLR 16/09 A3004 RMK AO2 T01630091
KPTT 200355Z AUTO 16013KT 10SM CLR 16/09 A3004 RMK AO2 T01630091
KPTT 200335Z AUTO 16012KT 10SM CLR 17/09 A3004 RMK AO2 T01650091
KPTT 200315Z AUTO 16012KT 10SM CLR 17/09 A3003 RMK AO2 T01670085
KPTT 200255Z AUTO 16012G16KT 10SM CLR 17/08 A3003 RMK AO2 T01720081
KPTT 200235Z AUTO 16011KT 10SM CLR 18/08 A3003 RMK AO2 T01760077
KPTT 200215Z AUTO 16012KT 10SM CLR 18/08 A3003 RMK AO2 T01800075
KPTT 200155Z AUTO 16011G16KT 10SM CLR 18/07 A3003 RMK AO2 T01840072
KPTT 200135Z AUTO 16013G17KT 10SM CLR 19/07 A3003 RMK AO2 T01870068
KPTT 200115Z AUTO 16011G17KT 10SM CLR 20/07 A3002 RMK AO2 T01950068
KPTT 200055Z AUTO 16012KT 10SM CLR 20/07 A3002 RMK AO2 T01980068
KPTT 200035Z AUTO 16012KT 10SM CLR 20/06 A3002 RMK AO2 T02040060
KPTT 200015Z AUTO 16012KT 10SM CLR 21/05 A3001 RMK AO2 T02120047
KPTT 192355Z AUTO 15009KT 10SM CLR 21/07 A3001 RMK AO2 T02110072 10255 20211
KPTT 192335Z AUTO 15007KT 10SM CLR 22/07 A3000 RMK AO2 T02170073
KPTT 192315Z AUTO 15010KT 10SM CLR 23/07 A3001 RMK AO2 T02250071
KPTT 192255Z AUTO 16013KT 10SM CLR 23/07 A3001 RMK AO2 T02340065
KPTT 192235Z AUTO 16012G18KT 10SM CLR 24/06 A3001 RMK AO2 T02440061
KPTT 192215Z AUTO 16015G18KT 10SM CLR 25/06 A3001 RMK AO2 T02500060
KPTT 192155Z AUTO 16016G19KT 10SM CLR 25/06 A3001 RMK AO2 T02530063
KPTT 192135Z AUTO 17015G18KT 10SM CLR 25/06 A3001 RMK AO2 T02490063
KPTT 192115Z AUTO 17016G21KT 10SM CLR 25/06 A3002 RMK AO2 T02470064
KPTT 192055Z AUTO 17015G19KT 10SM CLR 25/06 A3002 RMK AO2 T02470061
KPTT 192035Z AUTO 17016G21KT 10SM CLR 24/05 A3002 RMK AO2 T02410054
KPTT 192015Z AUTO 17015G20KT 10SM CLR 25/06 A3002 RMK AO2 T02490057
KPTT 191955Z AUTO 19017G21KT 10SM CLR 25/04 A3002 RMK AO2 T02530035
KPTT 191935Z AUTO 17016G21KT 10SM CLR 25/06 A3003 RMK AO2 T02500056
KPTT 191915Z AUTO 17013KT 10SM CLR 25/07 A3004 RMK AO2 T02470065
KPTT 191855Z AUTO 17014G18KT 10SM CLR 25/07 A3005 RMK AO2 T02450069
KPTT 191835Z AUTO 17013KT 10SM CLR 24/08 A3006 RMK AO2 T02410075
KPTT 191815Z AUTO 17012KT 10SM CLR 24/08 A3007 RMK AO2 T02370076
KPTT 191755Z AUTO 19011G15KT 10SM CLR 23/07 A3008 RMK AO2 T02280071 10229 20066
KPTT 191735Z AUTO 19012G15KT 10SM CLR 22/07 A3009 RMK AO2 T02240065
KPTT 191715Z AUTO 18012KT 10SM CLR 21/07 A3009 RMK AO2 T02130065
KPTT 191655Z AUTO 18012KT 10SM CLR 21/07 A3009 RMK AO2 T02130069
KPTT 191635Z AUTO 18012KT 10SM CLR 20/08 A3010 RMK AO2 T02020075
KPTT 191615Z AUTO 17009KT 10SM CLR 19/08 A3010 RMK AO2 T01890075
KPTT 191555Z AUTO 19011KT 10SM CLR 18/08 A3011 RMK AO2 T01800078
KPTT 191535Z AUTO 19011KT 10SM CLR 18/08 A3010 RMK AO2 T01750082
KPTT 191515Z AUTO 17009KT 10SM CLR 17/08 A3010 RMK AO2 T01660080